createdAt,value
2024-05-09T00:01:39.247Z,15.93
2024-05-09T00:03:41.587Z,15.95
2024-05-09T00:05:46.702Z,15.93
2024-05-09T00:07:48.618Z,16.00
2024-05-09T00:09:53.074Z,15.87
2024-05-09T00:11:54.968Z,15.98
2024-05-09T00:13:57.072Z,15.99
2024-05-09T00:15:59.820Z,15.87
2024-05-09T00:18:02.085Z,15.86
2024-05-09T00:20:11.067Z,15.82
2024-05-09T00:22:16.399Z,15.83
2024-05-09T00:24:18.387Z,15.78
2024-05-09T00:26:24.010Z,15.72
2024-05-09T00:28:25.769Z,15.79
2024-05-09T00:30:33.748Z,15.74
2024-05-09T00:32:38.202Z,15.77
2024-05-09T00:34:40.275Z,15.89
2024-05-09T00:36:42.153Z,15.88
2024-05-09T00:38:45.871Z,15.94
2024-05-09T00:40:47.881Z,15.85
2024-05-09T00:42:52.403Z,15.78
2024-05-09T00:44:54.166Z,15.71
2024-05-09T00:46:56.281Z,15.66
2024-05-09T00:48:58.242Z,15.62
2024-05-09T00:51:00.845Z,15.62
2024-05-09T00:53:03.044Z,15.72
2024-05-09T00:55:06.574Z,15.85
2024-05-09T00:57:08.511Z,15.89
2024-05-09T00:59:13.109Z,15.82
2024-05-09T01:01:17.967Z,15.72
2024-05-09T01:03:20.381Z,15.68
2024-05-09T01:05:22.538Z,15.73
2024-05-09T01:07:24.812Z,15.74
2024-05-09T01:09:26.795Z,15.71
2024-05-09T01:11:33.776Z,15.70
2024-05-09T01:13:35.743Z,15.73
2024-05-09T01:15:40.196Z,15.71
2024-05-09T01:17:42.580Z,15.64
2024-05-09T01:19:44.642Z,15.62
2024-05-09T01:21:46.556Z,15.55
2024-05-09T01:23:51.051Z,15.57
2024-05-09T01:25:52.859Z,15.61
2024-05-09T01:27:54.543Z,15.66
2024-05-09T01:29:56.421Z,15.71
2024-05-09T01:31:58.301Z,15.65
2024-05-09T01:34:00.435Z,15.67
2024-05-09T01:36:02.492Z,15.73
2024-05-09T01:38:04.846Z,15.70
2024-05-09T01:40:14.907Z,15.61
2024-05-09T01:42:20.076Z,15.53
2024-05-09T01:44:21.884Z,15.45
2024-05-09T01:46:23.820Z,15.39
2024-05-09T01:48:25.890Z,15.40
2024-05-09T01:50:38.134Z,15.39
2024-05-09T01:52:43.094Z,15.42
2024-05-09T01:54:44.941Z,15.47
2024-05-09T01:56:49.403Z,15.47
2024-05-09T01:58:51.275Z,15.43
2024-05-09T02:00:53.179Z,15.36
2024-05-09T02:02:55.055Z,15.32
2024-05-09T02:04:57.104Z,15.28
2024-05-09T02:06:59.026Z,15.33
2024-05-09T02:09:00.787Z,15.27
2024-05-09T02:11:02.868Z,15.31
2024-05-09T02:13:08.543Z,15.24
2024-05-09T02:15:13.218Z,15.17
2024-05-09T02:17:18.226Z,15.09
2024-05-09T02:19:20.183Z,15.04
2024-05-09T02:21:22.062Z,14.99
2024-05-09T02:23:23.791Z,14.96
2024-05-09T02:25:25.578Z,15.08
2024-05-09T02:27:28.956Z,15.19
2024-05-09T02:29:33.449Z,15.14
2024-05-09T02:31:35.348Z,15.20
2024-05-09T02:33:37.435Z,15.23
2024-05-09T02:35:39.804Z,15.14
2024-05-09T02:37:42.059Z,15.15
2024-05-09T02:39:43.855Z,15.20
2024-05-09T02:41:45.683Z,15.21
2024-05-09T02:43:47.509Z,15.04
2024-05-09T02:45:51.989Z,14.93
2024-05-09T02:47:54.062Z,15.00
2024-05-09T02:49:56.086Z,14.99
2024-05-09T02:51:57.979Z,14.90
2024-05-09T02:54:02.818Z,14.74
2024-05-09T02:56:05.614Z,14.66
2024-05-09T02:58:07.643Z,14.62
2024-05-09T03:00:18.542Z,14.55
2024-05-09T03:02:26.861Z,14.45
2024-05-09T03:04:28.755Z,14.41
2024-05-09T03:06:30.618Z,14.37
2024-05-09T03:08:32.657Z,14.39
2024-05-09T03:10:36.818Z,14.30
2024-05-09T03:12:40.608Z,14.33
2024-05-09T03:14:42.622Z,14.26
2024-05-09T03:16:44.591Z,14.23
2024-05-09T03:18:51.734Z,14.23
2024-05-09T03:20:53.929Z,14.34
2024-05-09T03:22:57.003Z,14.31
2024-05-09T03:24:59.052Z,14.35
2024-05-09T03:27:01.008Z,14.26
2024-05-09T03:29:03.121Z,14.11
2024-05-09T03:31:06.280Z,14.01
2024-05-09T03:33:10.423Z,14.02
2024-05-09T03:35:15.121Z,13.96
2024-05-09T03:37:16.930Z,13.95
2024-05-09T03:39:18.773Z,13.94
2024-05-09T03:41:20.443Z,13.88
2024-05-09T03:43:22.375Z,13.85
2024-05-09T03:45:25.600Z,13.83
2024-05-09T03:47:27.562Z,13.98
2024-05-09T03:49:29.552Z,13.95
2024-05-09T03:51:34.120Z,13.93
2024-05-09T03:53:36.039Z,13.89
2024-05-09T03:55:38.001Z,13.96
2024-05-09T03:57:39.779Z,13.96
2024-05-09T03:59:41.631Z,13.98
2024-05-09T04:01:43.558Z,13.98
2024-05-09T04:03:45.636Z,13.95
2024-05-09T04:05:47.453Z,13.94
2024-05-09T04:07:52.134Z,13.89
2024-05-09T04:09:53.915Z,14.01
2024-05-09T04:11:55.934Z,13.97
2024-05-09T04:13:57.918Z,13.99
2024-05-09T04:15:59.731Z,13.85
2024-05-09T04:18:02.195Z,13.76
2024-05-09T04:20:08.333Z,13.68
2024-05-09T04:22:10.428Z,13.64
2024-05-09T04:24:14.839Z,13.66
2024-05-09T04:26:17.480Z,13.67
2024-05-09T04:28:19.471Z,13.68
2024-05-09T04:30:30.230Z,13.72
2024-05-09T04:32:38.358Z,13.70
2024-05-09T04:34:40.184Z,13.79
2024-05-09T04:36:44.339Z,13.77
2024-05-09T04:38:46.717Z,13.70
2024-05-09T04:40:51.198Z,13.75
2024-05-09T04:42:53.035Z,13.80
2024-05-09T04:44:58.335Z,13.81
2024-05-09T04:47:00.683Z,13.85
2024-05-09T04:49:02.672Z,13.96
2024-05-09T04:51:07.245Z,14.03
2024-05-09T04:53:10.647Z,14.01
2024-05-09T04:55:13.595Z,14.04
2024-05-09T04:57:18.185Z,13.96
2024-05-09T04:59:20.068Z,14.01
2024-05-09T05:01:22.085Z,14.03
2024-05-09T05:03:24.016Z,14.06
2024-05-09T05:05:26.075Z,14.14
2024-05-09T05:07:27.939Z,14.10
2024-05-09T05:09:30.137Z,14.07
2024-05-09T05:11:32.258Z,14.04
2024-05-09T05:13:39.447Z,14.12
2024-05-09T05:15:43.397Z,14.07
2024-05-09T05:17:45.393Z,14.14
2024-05-09T05:19:47.527Z,14.28
2024-05-09T05:21:49.526Z,14.39
2024-05-09T05:23:51.503Z,14.46
2024-05-09T05:25:54.186Z,14.50
2024-05-09T05:27:56.313Z,14.53
2024-05-09T05:30:00.756Z,14.61
2024-05-09T05:32:02.678Z,14.65
2024-05-09T05:34:04.776Z,14.78
2024-05-09T05:36:07.588Z,14.90
2024-05-09T05:38:10.688Z,14.89
2024-05-09T05:40:20.671Z,14.93
2024-05-09T05:42:26.795Z,14.93
2024-05-09T05:44:28.713Z,15.03
2024-05-09T05:46:33.120Z,15.14
2024-05-09T05:48:35.358Z,15.21
2024-05-09T05:50:38.474Z,15.46
2024-05-09T05:52:40.707Z,15.51
2024-05-09T05:54:42.521Z,15.53
2024-05-09T05:56:44.432Z,15.60
2024-05-09T05:58:46.323Z,15.58
2024-05-09T06:00:48.416Z,15.74
2024-05-09T06:02:53.272Z,15.83
2024-05-09T06:04:55.245Z,15.86
2024-05-09T06:06:57.140Z,15.84
2024-05-09T06:08:58.941Z,15.86
2024-05-09T06:11:00.926Z,15.89
2024-05-09T06:13:02.819Z,15.85
2024-05-09T06:15:05.797Z,15.88
2024-05-09T06:17:07.786Z,15.86
2024-05-09T06:19:12.425Z,15.93
2024-05-09T06:21:16.787Z,16.08
2024-05-09T06:23:18.717Z,16.19
2024-05-09T06:25:20.910Z,16.16
2024-05-09T06:27:22.760Z,15.99
2024-05-09T06:29:24.560Z,16.10
2024-05-09T06:31:26.363Z,16.27
2024-05-09T06:33:28.514Z,16.40
2024-05-09T06:35:33.731Z,16.53
2024-05-09T06:37:36.365Z,16.61
2024-05-09T06:39:38.111Z,16.69
2024-05-09T06:41:40.012Z,16.73
2024-05-09T06:43:42.749Z,16.79
2024-05-09T06:45:44.539Z,16.90
2024-05-09T06:47:46.605Z,16.99
2024-05-09T06:49:48.716Z,16.90
2024-05-09T06:51:53.443Z,17.01
2024-05-09T06:53:55.322Z,17.16
2024-05-09T06:55:57.119Z,17.21
2024-05-09T06:57:58.878Z,17.30
2024-05-09T07:00:00.832Z,17.33
2024-05-09T07:02:03.042Z,17.24
2024-05-09T07:04:05.258Z,17.16
2024-05-09T07:06:07.109Z,17.25
2024-05-09T07:08:11.877Z,17.30
2024-05-09T07:10:21.702Z,17.38
2024-05-09T07:12:28.084Z,17.50
2024-05-09T07:14:30.331Z,17.55
2024-05-09T07:16:32.146Z,17.63
2024-05-09T07:18:34.040Z,17.69
2024-05-09T07:20:35.993Z,17.72
2024-05-09T07:22:37.781Z,17.82
2024-05-09T07:24:42.292Z,17.83
2024-05-09T07:26:44.219Z,17.86
2024-05-09T07:28:46.025Z,17.99
2024-05-09T07:30:48.059Z,18.06
2024-05-09T07:32:50.252Z,18.13
2024-05-09T07:34:52.647Z,18.21
2024-05-09T07:36:54.532Z,18.07
2024-05-09T07:38:56.266Z,18.23
2024-05-09T07:41:00.897Z,18.29
2024-05-09T07:43:03.050Z,18.50
2024-05-09T07:45:21.561Z,18.90
2024-05-09T07:53:14.372Z,18.68
2024-05-09T07:54:01.910Z,18.68
2024-05-09T07:56:08.642Z,19.17
2024-05-09T07:58:11.070Z,19.38
2024-05-09T08:00:17.280Z,19.45
2024-05-09T08:02:22.077Z,19.31
2024-05-09T08:04:26.582Z,19.55
2024-05-09T08:06:28.746Z,19.76
2024-05-09T08:08:30.517Z,19.92
2024-05-09T08:10:32.434Z,19.87
2024-05-09T08:12:36.949Z,20.04
2024-05-09T08:14:39.071Z,20.15
2024-05-09T08:16:40.931Z,20.24
2024-05-09T08:18:42.837Z,20.35
2024-05-09T08:20:48.602Z,20.40
2024-05-09T08:22:50.443Z,20.48
2024-05-09T08:24:52.212Z,20.09
2024-05-09T08:26:54.233Z,19.87
2024-05-09T08:28:58.709Z,19.72
2024-05-09T08:31:03.178Z,19.56
2024-05-09T08:33:07.885Z,19.62
2024-05-09T08:35:10.102Z,19.43
2024-05-09T08:37:19.418Z,19.44
2024-05-09T08:39:23.916Z,19.63
2024-05-09T08:41:25.918Z,19.56
2024-05-09T08:43:29.564Z,19.78
2024-05-09T08:45:35.577Z,19.73
2024-05-09T08:47:37.584Z,19.68
2024-05-09T08:49:41.643Z,19.84
2024-05-09T08:51:44.252Z,19.92
2024-05-09T08:53:46.462Z,20.23
2024-05-09T08:55:51.063Z,20.07
2024-05-09T08:57:53.652Z,19.94
2024-05-09T08:59:59.347Z,19.97
2024-05-09T09:02:06.055Z,20.23
2024-05-09T09:04:10.187Z,20.35
2024-05-09T09:06:12.794Z,20.48
2024-05-09T09:08:15.830Z,20.74
2024-05-09T09:10:25.416Z,20.54
2024-05-09T09:12:33.560Z,20.48
2024-05-09T09:14:35.376Z,20.39
2024-05-09T09:16:37.737Z,20.50
2024-05-09T09:18:44.330Z,20.42
2024-05-09T09:20:46.448Z,20.29
2024-05-09T09:22:48.573Z,20.59
2024-05-09T09:24:50.591Z,20.70
2024-05-09T09:26:52.541Z,20.57
2024-05-09T09:29:00.051Z,20.55
2024-05-09T09:31:02.583Z,20.35
2024-05-09T09:33:05.218Z,20.25
2024-05-09T09:35:10.138Z,20.39
2024-05-09T09:37:11.959Z,20.72
2024-05-09T09:39:18.469Z,21.04
2024-05-09T09:41:26.424Z,21.10
2024-05-09T09:43:28.552Z,21.24
2024-05-09T09:45:32.358Z,21.30
2024-05-09T09:47:37.056Z,21.18
2024-05-09T09:49:39.724Z,21.18
2024-05-09T09:51:45.296Z,21.37
2024-05-09T09:53:49.062Z,21.45
2024-05-09T09:55:52.110Z,21.49
2024-05-09T09:57:56.184Z,21.52
2024-05-09T10:00:00.365Z,21.49
2024-05-09T10:02:02.369Z,21.51
2024-05-09T10:04:05.395Z,21.37
2024-05-09T10:06:08.546Z,21.42
2024-05-09T10:08:13.837Z,21.19
2024-05-09T10:10:29.881Z,21.18
2024-05-09T10:12:34.841Z,21.18
2024-05-09T10:14:41.015Z,21.24
2024-05-09T10:16:45.818Z,21.08
2024-05-09T10:18:47.975Z,20.98
2024-05-09T10:20:50.355Z,20.85
2024-05-09T10:22:52.154Z,20.89
2024-05-09T10:25:05.354Z,20.98
2024-05-09T10:27:07.628Z,21.16
2024-05-09T10:29:12.817Z,21.35
2024-05-09T10:31:16.467Z,21.33
2024-05-09T10:33:20.256Z,21.43
2024-05-09T10:35:22.741Z,21.33
2024-05-09T10:37:25.745Z,21.27
2024-05-09T10:39:34.722Z,21.37
2024-05-09T10:41:40.165Z,21.42
2024-05-09T10:43:42.367Z,21.47
2024-05-09T10:45:44.559Z,21.57
2024-05-09T10:47:46.553Z,21.66
2024-05-09T10:49:49.569Z,21.69
2024-05-09T10:51:52.589Z,21.58
2024-05-09T10:53:54.611Z,21.42
2024-05-09T10:55:56.786Z,21.45
2024-05-09T10:58:01.507Z,21.55
2024-05-09T11:00:06.196Z,21.54
2024-05-09T11:02:09.368Z,21.54
2024-05-09T11:04:11.550Z,21.75
2024-05-09T11:06:15.030Z,21.67
2024-05-09T11:08:17.464Z,21.76
2024-05-09T11:10:27.379Z,21.85
2024-05-09T11:12:33.913Z,21.92
2024-05-09T11:14:38.689Z,22.03
2024-05-09T11:16:40.689Z,22.14
2024-05-09T11:18:42.642Z,22.06
2024-05-09T11:20:44.678Z,22.16
2024-05-09T11:22:46.629Z,22.18
2024-05-09T11:24:49.886Z,22.08
2024-05-09T11:26:51.815Z,22.09
2024-05-09T11:28:53.718Z,22.19
2024-05-09T11:31:05.140Z,22.28
2024-05-09T11:33:10.656Z,22.19
2024-05-09T11:35:12.824Z,22.24
2024-05-09T11:37:14.814Z,22.35
2024-05-09T11:39:16.864Z,22.58
2024-05-09T11:41:19.568Z,22.64
2024-05-09T11:43:21.617Z,22.77
2024-05-09T11:45:23.451Z,22.71
2024-05-09T11:47:28.278Z,22.72
2024-05-09T11:49:30.777Z,22.82
2024-05-09T11:51:32.733Z,22.86
2024-05-09T11:53:34.675Z,22.80
2024-05-09T11:55:36.679Z,22.73
2024-05-09T11:57:39.155Z,22.64
2024-05-09T11:59:41.398Z,22.35
2024-05-09T12:01:43.556Z,22.47
2024-05-09T12:03:48.392Z,22.54
2024-05-09T12:05:50.748Z,22.59
2024-05-09T12:07:52.704Z,22.71
2024-05-09T12:09:54.614Z,22.82
2024-05-09T12:11:56.516Z,22.89
2024-05-09T12:13:58.342Z,22.93
2024-05-09T12:16:00.964Z,22.94
2024-05-09T12:18:04.212Z,23.05
2024-05-09T12:20:17.507Z,23.11
2024-05-09T12:22:27.341Z,23.25
2024-05-09T12:24:29.406Z,23.43
2024-05-09T12:26:31.461Z,23.65
2024-05-09T12:28:33.436Z,24.01
2024-05-09T12:30:38.905Z,24.57
2024-05-09T12:32:42.496Z,25.22
2024-05-09T12:34:44.383Z,25.65
2024-05-09T12:36:49.068Z,26.18
2024-05-09T12:38:51.201Z,26.37
2024-05-09T12:40:53.222Z,25.82
2024-05-09T12:42:55.302Z,25.49
2024-05-09T12:44:57.226Z,25.65
2024-05-09T12:46:59.101Z,26.20
2024-05-09T12:49:01.510Z,26.49
2024-05-09T12:51:03.956Z,26.94
2024-05-09T12:53:08.549Z,27.37
2024-05-09T12:55:12.047Z,27.17
2024-05-09T12:57:13.953Z,27.12
2024-05-09T12:59:15.901Z,26.97
2024-05-09T13:01:17.891Z,27.53
2024-05-09T13:03:20.364Z,27.76
2024-05-09T13:05:22.559Z,27.97
2024-05-09T13:07:25.388Z,28.58
2024-05-09T13:09:29.994Z,28.91
2024-05-09T13:11:32.110Z,29.22
2024-05-09T13:13:34.288Z,29.26
2024-05-09T13:15:36.409Z,28.54
2024-05-09T13:17:38.542Z,28.82
2024-05-09T13:19:40.624Z,28.70
2024-05-09T13:21:42.561Z,29.19
2024-05-09T13:23:44.850Z,29.12
2024-05-09T13:25:49.414Z,29.11
2024-05-09T13:27:51.472Z,29.45
2024-05-09T13:29:53.345Z,28.94
2024-05-09T13:31:55.254Z,29.23
2024-05-09T13:33:57.154Z,29.63
2024-05-09T13:35:59.306Z,29.42
2024-05-09T13:38:01.635Z,29.70
2024-05-09T13:40:06.763Z,30.22
2024-05-09T13:42:11.805Z,30.16
2024-05-09T13:44:13.658Z,29.97
2024-05-09T13:46:15.504Z,30.05
2024-05-09T13:48:17.895Z,30.23
2024-05-09T13:50:28.129Z,30.03
2024-05-09T13:52:35.697Z,30.12
2024-05-09T13:54:37.732Z,29.25
2024-05-09T13:56:41.345Z,28.69
2024-05-09T13:58:46.153Z,29.06
2024-05-09T14:00:49.355Z,28.45
2024-05-09T14:02:51.762Z,28.30
2024-05-09T14:04:54.090Z,27.76
2024-05-09T14:06:56.122Z,27.18
2024-05-09T14:08:58.019Z,26.97
2024-05-09T14:11:00.107Z,26.61
2024-05-09T14:13:02.232Z,26.16
2024-05-09T14:15:07.554Z,26.07
2024-05-09T14:17:09.672Z,26.39
2024-05-09T14:19:11.927Z,26.63
2024-05-09T14:21:13.809Z,26.19
2024-05-09T14:23:17.768Z,25.87
2024-05-09T14:25:19.655Z,25.65
2024-05-09T14:27:21.604Z,25.91
2024-05-09T14:29:23.677Z,26.34
2024-05-09T14:31:28.166Z,26.63
2024-05-09T14:33:30.309Z,26.65
2024-05-09T14:35:32.320Z,26.32
2024-05-09T14:37:36.333Z,26.20
2024-05-09T14:39:39.046Z,26.09
2024-05-09T14:41:41.079Z,26.14
2024-05-09T14:43:43.333Z,25.83
2024-05-09T14:45:46.016Z,25.82
2024-05-09T14:47:50.891Z,25.66
2024-05-09T14:49:52.880Z,25.40
2024-05-09T14:51:55.028Z,25.24
2024-05-09T14:53:56.790Z,25.18
2024-05-09T14:55:58.656Z,25.14
2024-05-09T14:58:00.587Z,25.27
2024-05-09T15:00:03.765Z,25.27
2024-05-09T15:02:07.158Z,25.18
2024-05-09T15:04:12.036Z,25.06
2024-05-09T15:06:14.601Z,25.00
2024-05-09T15:08:17.803Z,24.91
2024-05-09T15:10:27.023Z,24.83
2024-05-09T15:12:35.853Z,24.79
2024-05-09T15:14:37.719Z,24.86
2024-05-09T15:16:39.501Z,24.85
2024-05-09T15:18:43.760Z,24.78
2024-05-09T15:20:48.951Z,24.84
2024-05-09T15:22:50.995Z,24.82
2024-05-09T15:24:53.051Z,24.87
2024-05-09T15:26:55.082Z,24.90
2024-05-09T15:28:57.007Z,24.85
2024-05-09T15:30:59.038Z,24.94
2024-05-09T15:33:01.540Z,24.80
2024-05-09T15:35:04.448Z,24.68
2024-05-09T15:37:09.165Z,24.69
2024-05-09T15:39:11.322Z,24.60
2024-05-09T15:41:13.715Z,24.48
2024-05-09T15:43:15.783Z,24.47
2024-05-09T15:45:17.716Z,24.53
2024-05-09T15:47:20.039Z,24.65
2024-05-09T15:49:22.065Z,24.65
2024-05-09T15:51:24.017Z,24.73
2024-05-09T15:53:28.548Z,24.70
2024-05-09T15:55:30.415Z,24.44
2024-05-09T15:57:32.676Z,24.42
2024-05-09T15:59:35.168Z,24.44
2024-05-09T16:01:37.141Z,24.41
2024-05-09T16:03:39.153Z,24.44
2024-05-09T16:05:41.489Z,24.40
2024-05-09T16:07:43.839Z,24.48
2024-05-09T16:09:48.346Z,24.55
2024-05-09T16:11:50.331Z,24.60
2024-05-09T16:13:52.231Z,24.55
2024-05-09T16:15:54.177Z,24.35
2024-05-09T16:17:59.384Z,24.44
2024-05-09T16:20:01.384Z,24.49
2024-05-09T16:22:03.480Z,24.53
2024-05-09T16:24:05.899Z,24.43
2024-05-09T16:26:11.143Z,24.40
2024-05-09T16:28:13.612Z,24.40
2024-05-09T16:30:24.665Z,24.44
2024-05-09T16:32:33.450Z,24.26
2024-05-09T16:34:35.805Z,24.23
2024-05-09T16:36:37.713Z,24.36
2024-05-09T16:38:39.684Z,24.38
2024-05-09T16:40:41.842Z,24.24
2024-05-09T16:42:46.345Z,24.15
2024-05-09T16:44:48.504Z,24.01
2024-05-09T16:46:50.376Z,24.01
2024-05-09T16:48:52.400Z,24.00
2024-05-09T16:50:54.407Z,23.92
2024-05-09T16:52:56.634Z,23.93
2024-05-09T16:54:58.640Z,23.88
2024-05-09T16:57:00.625Z,23.95
2024-05-09T16:59:05.257Z,23.93
2024-05-09T17:01:07.314Z,23.92
2024-05-09T17:03:10.275Z,23.89
2024-05-09T17:05:13.111Z,23.79
2024-05-09T17:07:15.224Z,23.71
2024-05-09T17:09:19.799Z,23.71
2024-05-09T17:11:22.346Z,23.56
2024-05-09T17:13:24.240Z,23.51
2024-05-09T17:15:29.020Z,23.65
2024-05-09T17:17:30.992Z,23.63
2024-05-09T17:19:33.096Z,23.66
2024-05-09T17:21:35.067Z,23.76
2024-05-09T17:23:37.227Z,23.82
2024-05-09T17:25:39.320Z,23.84
2024-05-09T17:27:41.175Z,23.76
2024-05-09T17:29:43.193Z,23.80
2024-05-09T17:31:47.642Z,23.83
2024-05-09T17:33:49.689Z,23.76
2024-05-09T17:35:51.811Z,23.71
2024-05-09T17:37:53.848Z,23.63
2024-05-09T17:39:55.684Z,23.56
2024-05-09T17:41:57.631Z,23.50
2024-05-09T17:43:59.980Z,23.44
2024-05-09T17:46:02.078Z,23.35
2024-05-09T17:48:07.892Z,23.26
2024-05-09T17:50:14.865Z,23.25
2024-05-09T17:52:22.823Z,23.21
2024-05-09T17:54:24.774Z,23.14
2024-05-09T17:56:26.982Z,23.11
2024-05-09T17:58:28.854Z,23.12
2024-05-09T18:00:37.899Z,23.05
2024-05-09T18:02:43.034Z,23.04
2024-05-09T18:04:47.916Z,23.01
2024-05-09T18:06:49.904Z,23.01
2024-05-09T18:08:51.760Z,23.03
2024-05-09T18:10:55.345Z,23.04
2024-05-09T18:12:58.221Z,23.02
2024-05-09T18:15:00.386Z,22.95
2024-05-09T18:17:02.422Z,22.92
2024-05-09T18:19:04.588Z,22.89
2024-05-09T18:21:09.547Z,22.88
2024-05-09T18:23:12.226Z,22.88
2024-05-09T18:25:14.393Z,22.85
2024-05-09T18:27:16.512Z,22.79
2024-05-09T18:29:21.741Z,22.77
2024-05-09T18:31:24.437Z,22.75
2024-05-09T18:33:26.858Z,22.71
2024-05-09T18:35:28.906Z,22.70
2024-05-09T18:37:34.020Z,22.67
2024-05-09T18:39:36.143Z,22.63
2024-05-09T18:41:38.637Z,22.61
2024-05-09T18:43:45.099Z,22.55
2024-05-09T18:45:50.513Z,22.39
2024-05-09T18:47:52.712Z,22.21
2024-05-09T18:49:55.131Z,22.15
2024-05-09T18:51:59.873Z,22.12
2024-05-09T18:54:04.694Z,22.07
2024-05-09T18:56:07.863Z,22.06
2024-05-09T18:58:10.041Z,22.08
2024-05-09T19:00:19.315Z,22.06
2024-05-09T19:02:32.060Z,21.98
2024-05-09T19:04:34.612Z,21.98
2024-05-09T19:06:36.618Z,21.98
2024-05-09T19:08:39.135Z,22.00
2024-05-09T19:10:44.428Z,21.89
2024-05-09T19:12:46.636Z,21.77
2024-05-09T19:14:48.772Z,21.70
2024-05-09T19:16:50.763Z,21.65
2024-05-09T19:18:53.361Z,21.64
2024-05-09T19:20:55.692Z,21.64
2024-05-09T19:22:57.747Z,21.65
2024-05-09T19:24:59.813Z,21.66
2024-05-09T19:27:05.170Z,21.62
2024-05-09T19:29:07.278Z,21.57
2024-05-09T19:31:09.589Z,21.55
2024-05-09T19:33:12.964Z,21.45
2024-05-09T19:35:15.845Z,21.43
2024-05-09T19:37:18.289Z,21.40
2024-05-09T19:39:20.247Z,21.31
2024-05-09T19:41:22.107Z,21.21
2024-05-09T19:43:27.079Z,21.15
2024-05-09T19:45:29.252Z,21.08
2024-05-09T19:47:31.478Z,21.04
2024-05-09T19:49:33.583Z,20.98
2024-05-09T19:51:35.774Z,20.98
2024-05-09T19:53:38.021Z,21.00
2024-05-09T19:55:40.421Z,20.93
2024-05-09T19:57:42.478Z,20.85
2024-05-09T19:59:47.348Z,20.82
2024-05-09T20:01:50.170Z,20.86
2024-05-09T20:03:52.770Z,20.86
2024-05-09T20:05:55.107Z,20.78
2024-05-09T20:07:57.064Z,20.73
2024-05-09T20:09:59.444Z,20.67
2024-05-09T20:12:01.774Z,20.56
2024-05-09T20:14:05.484Z,20.39
2024-05-09T20:16:10.732Z,20.32
2024-05-09T20:18:12.993Z,20.19
2024-05-09T20:20:24.572Z,20.09
2024-05-09T20:22:35.249Z,20.08
2024-05-09T20:24:37.559Z,19.99
2024-05-09T20:26:39.750Z,20.11
2024-05-09T20:28:41.602Z,19.96
2024-05-09T20:30:43.418Z,19.84
2024-05-09T20:32:48.144Z,19.83
2024-05-09T20:34:50.141Z,19.79
2024-05-09T20:36:52.358Z,19.74
2024-05-09T20:38:54.245Z,19.79
2024-05-09T20:40:56.684Z,19.86
2024-05-09T20:42:58.646Z,19.95
2024-05-09T20:45:00.892Z,19.86
2024-05-09T20:47:02.719Z,19.76
2024-05-09T20:49:07.867Z,19.81
2024-05-09T20:51:10.216Z,19.77
2024-05-09T20:53:14.126Z,19.77
2024-05-09T20:55:17.116Z,19.73
2024-05-09T20:57:19.164Z,19.65
2024-05-09T20:59:21.213Z,19.65
2024-05-09T21:01:23.532Z,19.72
2024-05-09T21:03:25.913Z,19.65
2024-05-09T21:05:30.820Z,19.53
2024-05-09T21:07:33.032Z,19.43
2024-05-09T21:09:35.162Z,19.48
2024-05-09T21:11:37.154Z,19.52
2024-05-09T21:13:39.364Z,19.41
2024-05-09T21:15:41.837Z,19.32
2024-05-09T21:17:44.007Z,19.23
2024-05-09T21:19:46.100Z,19.21
2024-05-09T21:21:52.452Z,19.14
2024-05-09T21:23:55.439Z,19.09
2024-05-09T21:25:57.387Z,19.11
2024-05-09T21:27:59.484Z,19.23
2024-05-09T21:30:01.463Z,19.26
2024-05-09T21:32:03.439Z,19.34
2024-05-09T21:34:05.608Z,19.34
2024-05-09T21:36:09.249Z,19.25
2024-05-09T21:38:14.203Z,19.28
2024-05-09T21:40:26.659Z,19.22
2024-05-09T21:42:35.123Z,19.20
2024-05-09T21:44:37.390Z,19.13
2024-05-09T21:46:39.436Z,19.20
2024-05-09T21:48:41.559Z,19.19
2024-05-09T21:50:43.454Z,19.12
2024-05-09T21:52:45.237Z,19.06
2024-05-09T21:54:49.945Z,19.09
2024-05-09T21:56:51.789Z,19.13
2024-05-09T21:58:54.204Z,19.18
2024-05-09T22:00:56.178Z,19.07
2024-05-09T22:02:58.115Z,18.97
2024-05-09T22:05:00.094Z,18.93
2024-05-09T22:07:02.210Z,18.94
2024-05-09T22:09:04.409Z,18.90
2024-05-09T22:11:09.317Z,18.81
2024-05-09T22:13:11.488Z,18.61
2024-05-09T22:15:13.521Z,18.53
2024-05-09T22:17:15.469Z,18.50
2024-05-09T22:19:17.373Z,18.36
2024-05-09T22:21:22.523Z,18.39
2024-05-09T22:23:24.599Z,18.29
2024-05-09T22:25:29.575Z,18.22
2024-05-09T22:27:34.667Z,18.18
2024-05-09T22:29:36.651Z,18.14
2024-05-09T22:31:38.399Z,18.07
2024-05-09T22:33:41.985Z,18.03
2024-05-09T22:35:45.192Z,18.06
2024-05-09T22:37:48.575Z,17.98
2024-05-09T22:39:51.843Z,17.91
2024-05-09T22:41:53.738Z,17.90
2024-05-09T22:43:58.247Z,17.85
2024-05-09T22:46:00.223Z,17.75
2024-05-09T22:48:02.322Z,17.72
2024-05-09T22:50:10.790Z,17.69
2024-05-09T22:52:18.074Z,17.65
2024-05-09T22:54:19.897Z,17.67
2024-05-09T22:56:27.370Z,17.61
2024-05-09T22:58:29.424Z,17.62
2024-05-09T23:00:34.224Z,17.79
2024-05-09T23:02:36.808Z,17.67
2024-05-09T23:04:38.759Z,17.63
2024-05-09T23:06:40.825Z,17.68
2024-05-09T23:08:42.691Z,17.73
2024-05-09T23:10:44.699Z,17.72
2024-05-09T23:12:46.578Z,17.68
2024-05-09T23:14:48.357Z,17.68
2024-05-09T23:16:52.871Z,17.71
2024-05-09T23:18:54.784Z,17.71
2024-05-09T23:20:56.672Z,17.62
2024-05-09T23:22:58.837Z,17.50
2024-05-09T23:25:00.869Z,17.41
2024-05-09T23:27:02.871Z,17.38
2024-05-09T23:29:04.610Z,17.32
2024-05-09T23:31:06.506Z,17.23
2024-05-09T23:33:13.054Z,17.20
2024-05-09T23:35:15.661Z,17.13
2024-05-09T23:37:17.541Z,17.06
2024-05-09T23:39:19.479Z,17.03
2024-05-09T23:41:21.360Z,16.93
2024-05-09T23:43:23.322Z,16.98
2024-05-09T23:45:25.171Z,17.03
2024-05-09T23:47:27.060Z,17.10
2024-05-09T23:49:32.116Z,17.25
2024-05-09T23:51:34.123Z,17.24
2024-05-09T23:53:35.981Z,17.28
2024-05-09T23:55:41.070Z,17.34
2024-05-09T23:57:43.034Z,17.34
2024-05-09T23:59:44.963Z,17.45
